EDT,Max TemperatureF,Mean TemperatureF,Min TemperatureF,Max Dew PointF,MeanDew PointF,Min DewpointF,Max Humidity, Mean Humidity, Min Humidity, Max Sea Level PressureIn, Mean Sea Level PressureIn, Min Sea Level PressureIn, Max VisibilityMiles, Mean VisibilityMiles, Min VisibilityMiles, Max Wind SpeedMPH, Mean Wind SpeedMPH, Max Gust SpeedMPH,PrecipitationIn, CloudCover, Events, WindDirDegrees
2011-10-1,62,56,50,52,45,41,88,64,48,29.86,29.79,29.72,10,10,10,8,2,,0.00,4,Rain,300
2011-10-2,59,50,42,46,43,37,100,76,51,29.99,29.91,29.84,10,10,10,10,2,17,0.00,6,,265
2011-10-3,62,53,44,52,47,45,100,81,55,30.11,30.02,29.94,10,10,2,7,1,,0.07,6,Rain,269
2011-10-4,71,58,46,59,51,45,100,79,53,30.20,30.14,30.09,10,10,10,8,2,,0.00,3,,289
2011-10-5,78,62,46,57,51,45,100,71,34,30.24,30.20,30.15,10,8,1,6,0,,0.00,0,,313
2011-10-6,73,62,50,57,53,48,100,80,50,30.37,30.32,30.25,10,9,7,10,2,,0.00,0,,31
2011-10-7,77,60,42,57,53,43,100,75,47,30.44,30.39,30.35,10,8,1,7,1,,0.00,0,,108
2011-10-8,75,60,44,59,55,54,94,59,47,30.52,30.47,30.43,10,6,0,7,1,,0.00,1,Fog,51
2011-10-9,78,61,44,61,57,52,100,63,44,30.47,30.41,30.33,10,7,0,6,1,,0.00,0,Fog,27
2011-10-10,80,64,48,66,62,57,100,74,45,30.32,30.23,30.14,10,8,1,8,1,,0.00,0,,37
2011-10-11,71,66,62,66,63,61,100,93,69,30.13,30.08,29.99,10,10,5,7,2,,0.01,4,Rain,21
2011-10-12,71,68,64,72,69,64,100,99,94,29.99,29.87,29.78,10,7,2,8,5,,0.49,8,Rain-Thunderstorm,79
2011-10-13,80,74,68,75,71,66,100,83,70,29.76,29.66,29.54,10,7,2,16,3,21,1.46,6,Rain-Thunderstorm,186
2011-10-14,73,68,62,66,52,43,100,55,36,29.61,29.54,29.50,10,10,7,16,6,30,0.46,5,Rain,225
2011-10-15,71,60,48,46,44,39,93,60,31,29.87,29.82,29.77,10,10,10,17,4,28,0.00,1,,237
2011-10-16,73,58,42,52,46,41,100,65,38,30.09,29.98,29.86,10,10,7,10,4,18,0.00,0,,210
2011-10-17,82,72,62,63,56,52,83,64,45,29.86,29.81,29.77,10,10,10,14,4,18,0.00,0,,207
2011-10-18,82,68,53,66,63,57,100,73,54,29.84,29.79,29.72,10,7,0,6,1,,0.00,2,,129
2011-10-19,66,64,62,66,64,63,100,98,94,29.72,29.47,29.28,10,8,2,9,3,16,1.09,8,Rain,37
2011-10-20,62,55,48,59,47,41,100,73,45,29.68,29.54,29.33,10,10,10,20,11,30,0.00,3,,217
2011-10-21,64,53,42,52,45,43,100,76,49,30.04,29.97,29.87,10,10,10,9,2,,0.00,1,,247
2011-10-22,64,52,41,50,47,43,100,75,49,30.16,30.11,30.06,10,10,4,7,1,,0.00,2,,173
2011-10-23,68,52,35,54,51,48,100,67,49,30.16,30.10,30.06,10,7,1,7,1,,0.00,1,,187
2011-10-24,71,56,41,55,54,52,100,65,50,30.12,30.05,29.96,10,8,0,9,1,,0.00,1,Fog,195
2011-10-25,69,54,39,54,47,43,100,67,40,30.24,30.16,30.07,10,10,7,7,1,,0.00,0,,250
2011-10-26,77,60,44,55,51,45,100,71,44,30.10,29.97,29.82,10,10,10,14,4,18,0.00,0,,213
2011-10-27,80,68,57,57,55,52,82,61,42,29.80,29.72,29.63,10,10,10,16,7,24,0.00,3,,219
2011-10-28,55,48,42,43,38,34,100,71,54,30.20,30.13,29.98,10,10,7,14,8,18,0.09,8,Rain,26
2011-10-29,51,45,39,43,37,30,100,83,47,30.07,29.96,29.90,10,8,2,13,7,23,0.90,6,Rain,352
2011-10-30,57,45,33,37,30,19,100,55,23,30.30,30.25,30.09,10,10,10,5,1,,0.00,0,,49
2011-10-31,59,44,30,39,32,23,100,60,29,30.34,30.27,30.19,10,10,7,9,1,,0.00,2,,131